Time;durP1;ratioP1;P1;durP2;ratioP2;P2;SDS_P1;SDS_P2;PMS_P1;PMS_P2;Temp;Humidity;BMP_temperature;BMP_pressure;BME280_temperature;BME280_humidity;BME280_pressure;Samples;Min_cycle;Max_cycle;Signal;HPM_P1;HPM_P2
2022/04/04 00:00:11;;;;;;;9.13;3.15;;;-0.10;99.90;;;;;;4802761;29;20058;-73
2022/04/04 00:02:39;;;;;;;8.98;3.00;;;-0.10;99.90;;;;;;4801366;29;20054;-73
2022/04/04 00:05:08;;;;;;;8.48;3.47;;;-0.10;99.90;;;;;;4804659;29;20055;-74
2022/04/04 00:07:35;;;;;;;8.13;3.15;;;-0.10;99.90;;;;;;4814422;29;20111;-74
2022/04/04 00:10:03;;;;;;;7.20;3.05;;;-0.20;99.90;;;;;;4819682;29;20066;-73
2022/04/04 00:12:32;;;;;;;6.97;3.83;;;-0.20;99.90;;;;;;4803524;29;20054;-73
2022/04/04 00:14:59;;;;;;;4.82;2.60;;;-0.20;99.90;;;;;;4820791;29;20054;-74
2022/04/04 00:17:28;;;;;;;11.68;3.05;;;-0.20;99.90;;;;;;4802330;29;20532;-73
2022/04/04 00:19:55;;;;;;;7.05;2.95;;;-0.20;99.90;;;;;;4801831;29;20069;-73
2022/04/04 00:22:23;;;;;;;6.45;2.30;;;-0.20;99.90;;;;;;4802363;29;20443;-73
2022/04/04 00:24:50;;;;;;;8.65;2.58;;;-0.20;99.90;;;;;;4821225;29;20077;-73
2022/04/04 00:27:18;;;;;;;4.65;2.40;;;-0.20;99.90;;;;;;4817263;29;20107;-74
2022/04/04 00:29:46;;;;;;;7.57;3.10;;;-0.20;99.90;;;;;;4819464;29;20086;-73
2022/04/04 00:32:13;;;;;;;6.57;3.38;;;-0.20;99.90;;;;;;4806730;29;20149;-73
2022/04/04 00:34:42;;;;;;;7.35;3.38;;;-0.20;99.90;;;;;;4824004;29;20054;-73
2022/04/04 00:37:10;;;;;;;9.82;3.58;;;-0.10;99.90;;;;;;4820913;29;20066;-73
2022/04/04 00:39:37;;;;;;;8.48;3.90;;;-0.20;99.90;;;;;;4806195;29;20086;-73
2022/04/04 00:42:06;;;;;;;8.60;3.70;;;-0.20;99.90;;;;;;4823384;29;20050;-74
2022/04/04 00:44:34;;;;;;;5.95;3.35;;;-0.20;99.90;;;;;;4822322;29;20062;-73
2022/04/04 00:47:01;;;;;;;6.95;3.83;;;-0.20;99.90;;;;;;4822664;29;20060;-74
2022/04/04 00:49:28;;;;;;;8.20;3.50;;;-0.20;99.90;;;;;;4806449;29;20535;-74
2022/04/04 00:51:57;;;;;;;4.97;3.95;;;-0.20;99.90;;;;;;4823651;29;20502;-74
2022/04/04 00:54:25;;;;;;;15.75;3.13;;;-0.20;99.90;;;;;;4820921;29;20046;-74
2022/04/04 00:56:53;;;;;;;5.57;3.10;;;-0.20;99.90;;;;;;4817450;29;20457;-74
2022/04/04 00:59:23;;;;;;;6.93;2.80;;;-0.20;99.90;;;;;;4811848;29;20082;-74
2022/04/04 01:01:51;;;;;;;4.78;2.25;;;-0.20;99.90;;;;;;4823465;29;20462;-74
2022/04/04 01:04:18;;;;;;;5.15;2.42;;;-0.20;99.90;;;;;;4804028;29;20427;-74
2022/04/04 01:06:46;;;;;;;5.68;2.95;;;-0.20;99.90;;;;;;4823212;29;20055;-73
2022/04/04 01:09:15;;;;;;;6.30;2.10;;;-0.10;99.90;;;;;;4819707;29;20058;-73
2022/04/04 01:12:05;;;;;;;5.07;2.28;;;-0.10;99.90;;;;;;4823441;29;20097;-74
2022/04/04 01:14:33;;;;;;;5.80;2.13;;;-0.10;99.90;;;;;;4819899;29;20491;-73
2022/04/04 01:17:01;;;;;;;5.47;2.60;;;-0.10;99.90;;;;;;4821748;29;20225;-74
2022/04/04 01:19:29;;;;;;;11.70;2.63;;;-0.10;99.90;;;;;;4806435;29;20054;-73
2022/04/04 01:21:56;;;;;;;7.65;3.22;;;-0.10;99.90;;;;;;4805560;29;20548;-74
2022/04/04 01:24:28;;;;;;;5.20;2.60;;;-0.10;99.90;;;;;;4806821;29;20062;-74
2022/04/04 01:26:55;;;;;;;3.47;2.13;;;-0.10;99.90;;;;;;4805362;29;20436;-74
2022/04/04 01:29:23;;;;;;;4.30;2.58;;;-0.10;99.90;;;;;;4823590;29;20061;-74
2022/04/04 01:31:52;;;;;;;3.83;2.00;;;-0.10;99.90;;;;;;4804028;29;20123;-74
2022/04/04 01:34:19;;;;;;;2.97;2.13;;;0.00;99.90;;;;;;4822641;29;20067;-74
2022/04/04 01:36:47;;;;;;;4.90;2.20;;;0.00;99.90;;;;;;4821720;29;20112;-73
2022/04/04 01:39:15;;;;;;;2.63;2.20;;;0.00;99.90;;;;;;4823316;29;20069;-73
2022/04/04 01:41:44;;;;;;;4.13;2.33;;;0.00;99.90;;;;;;4814262;29;20062;-73
2022/04/04 01:44:12;;;;;;;4.18;2.45;;;0.00;99.90;;;;;;4822217;29;20064;-74
2022/04/04 01:46:40;;;;;;;6.97;2.33;;;0.00;99.90;;;;;;4805254;29;20089;-74
2022/04/04 01:49:08;;;;;;;3.22;1.92;;;0.10;99.90;;;;;;4821467;29;20127;-74
2022/04/04 01:51:38;;;;;;;3.45;1.83;;;0.10;99.90;;;;;;4821958;29;20420;-74
2022/04/04 01:54:06;;;;;;;6.57;2.17;;;0.10;99.90;;;;;;4805034;29;20062;-74
2022/04/04 01:56:34;;;;;;;6.85;2.25;;;0.00;99.90;;;;;;4805870;29;20062;-73
2022/04/04 01:59:04;;;;;;;7.30;2.30;;;0.00;99.90;;;;;;4804263;29;20062;-73
2022/04/04 02:01:34;;;;;;;4.10;2.22;;;0.00;99.90;;;;;;4813211;29;20058;-73
2022/04/04 02:04:03;;;;;;;10.48;2.80;;;-0.10;99.90;;;;;;4821102;29;20062;-74
2022/04/04 02:06:30;;;;;;;9.52;3.13;;;-0.10;99.90;;;;;;4822149;29;20054;-74
2022/04/04 02:08:58;;;;;;;2.90;1.85;;;-0.20;99.90;;;;;;4825586;29;20054;-74
2022/04/04 02:11:25;;;;;;;3.92;1.95;;;-0.20;99.90;;;;;;4808629;29;20161;-74
2022/04/04 02:13:53;;;;;;;5.82;2.55;;;-0.20;99.90;;;;;;4789949;29;20597;-74
2022/04/04 02:16:22;;;;;;;5.65;2.60;;;-0.20;99.90;;;;;;4821266;29;20069;-74
2022/04/04 02:18:49;;;;;;;7.28;2.83;;;-0.20;99.90;;;;;;4788845;29;20061;-74
2022/04/04 02:21:16;;;;;;;4.55;2.88;;;-0.20;99.90;;;;;;4822253;29;20052;-74
2022/04/04 02:23:44;;;;;;;6.00;2.67;;;-0.30;99.90;;;;;;4804198;29;20070;-74
2022/04/04 02:26:11;;;;;;;4.40;2.47;;;-0.30;99.90;;;;;;4822237;29;20504;-74
2022/04/04 02:28:39;;;;;;;5.82;2.95;;;-0.30;99.90;;;;;;4821282;29;20073;-74
2022/04/04 02:31:06;;;;;;;6.47;3.08;;;-0.40;99.90;;;;;;4805029;29;20058;-74
2022/04/04 02:33:35;;;;;;;7.80;2.97;;;-0.40;99.90;;;;;;4804754;29;20067;-74
2022/04/04 02:36:03;;;;;;;7.60;2.83;;;-0.40;99.90;;;;;;4819608;29;20050;-74
2022/04/04 02:38:31;;;;;;;10.63;3.08;;;-0.40;99.90;;;;;;4821682;29;20097;-74
2022/04/04 02:40:59;;;;;;;7.10;2.70;;;-0.40;99.90;;;;;;4803798;29;20124;-74
2022/04/04 02:43:27;;;;;;;7.35;2.63;;;-0.40;99.90;;;;;;4821924;29;20065;-74
2022/04/04 02:45:55;;;;;;;5.78;2.55;;;-0.40;99.90;;;;;;4791605;29;20156;-74
2022/04/04 02:48:23;;;;;;;9.70;3.10;;;-0.50;99.90;;;;;;4807939;29;20146;-74
2022/04/04 02:50:52;;;;;;;6.47;3.08;;;-0.50;99.90;;;;;;4820244;29;20103;-74
2022/04/04 02:53:20;;;;;;;7.45;2.90;;;-0.50;99.90;;;;;;4821510;29;20457;-74
2022/04/04 02:58:32;;;;;;;3.90;3.05;;;-0.50;99.90;;;;;;4829226;29;20062;-73
2022/04/04 03:01:00;;;;;;;8.77;3.42;;;-0.50;99.90;;;;;;4804470;29;20064;-74
2022/04/04 03:03:28;;;;;;;9.25;2.92;;;-0.60;99.90;;;;;;4820829;29;20062;-74
2022/04/04 03:05:56;;;;;;;9.35;4.20;;;-0.60;99.90;;;;;;4804502;29;20062;-74
2022/04/04 03:08:24;;;;;;;8.68;3.30;;;-0.60;99.90;;;;;;4820092;29;20054;-74
2022/04/04 03:10:51;;;;;;;7.22;3.90;;;-0.60;99.90;;;;;;4821144;29;20064;-74
2022/04/04 03:13:18;;;;;;;5.47;3.08;;;-0.60;99.90;;;;;;4819205;29;20534;-74
2022/04/04 03:15:46;;;;;;;6.13;3.35;;;-0.60;99.90;;;;;;4839676;29;20069;-74
2022/04/04 03:18:13;;;;;;;9.00;3.33;;;-0.60;99.90;;;;;;4826815;29;20055;-74
2022/04/04 03:20:40;;;;;;;8.90;3.95;;;-0.60;99.90;;;;;;4820807;29;20149;-74
2022/04/04 03:23:09;;;;;;;6.75;3.42;;;-0.60;99.90;;;;;;4791972;29;20423;-74
2022/04/04 03:25:36;;;;;;;8.93;3.55;;;-0.60;99.90;;;;;;4839476;29;20072;-73
2022/04/04 03:28:04;;;;;;;7.22;3.08;;;-0.60;99.90;;;;;;4814145;29;20567;-74
2022/04/04 03:30:31;;;;;;;7.57;3.10;;;-0.60;99.90;;;;;;4804091;29;20062;-74
2022/04/04 03:33:00;;;;;;;7.60;3.70;;;-0.60;99.90;;;;;;4803760;29;20065;-73
2022/04/04 03:35:31;;;;;;;9.77;3.95;;;-0.60;99.90;;;;;;4820904;29;20062;-74
2022/04/04 03:38:01;;;;;;;6.82;4.07;;;-0.50;99.90;;;;;;4787874;29;20077;-74
2022/04/04 03:40:30;;;;;;;5.78;3.28;;;-0.50;99.90;;;;;;4819935;29;20057;-74
2022/04/04 03:43:01;;;;;;;16.08;4.13;;;-0.50;99.90;;;;;;4810019;29;20080;-74
2022/04/04 03:45:29;;;;;;;8.98;4.40;;;-0.50;99.90;;;;;;4787935;29;20069;-74
2022/04/04 03:47:57;;;;;;;11.27;4.68;;;-0.50;99.90;;;;;;4820676;29;20495;-74
2022/04/04 03:50:26;;;;;;;12.60;4.38;;;-0.50;99.90;;;;;;4819178;29;20054;-74
2022/04/04 03:52:55;;;;;;;10.55;3.90;;;-0.40;99.90;;;;;;4808064;29;20418;-74
2022/04/04 03:55:25;;;;;;;5.32;3.13;;;-0.40;99.90;;;;;;4819966;29;20069;-74
2022/04/04 03:57:54;;;;;;;9.02;4.28;;;-0.30;99.90;;;;;;4821034;29;20107;-74
2022/04/04 04:00:23;;;;;;;9.40;4.15;;;-0.20;99.90;;;;;;4802477;29;20477;-74
2022/04/04 04:02:51;;;;;;;11.57;3.92;;;-0.20;99.90;;;;;;4804484;29;20504;-73
2022/04/04 04:05:19;;;;;;;8.65;3.67;;;-0.10;99.90;;;;;;4789872;29;20059;-74
2022/04/04 04:07:47;;;;;;;12.00;4.82;;;-0.10;99.90;;;;;;4806507;29;20082;-74
2022/04/04 04:10:14;;;;;;;5.38;3.47;;;-0.10;99.90;;;;;;4822002;29;20054;-73
2022/04/04 04:12:43;;;;;;;7.38;3.75;;;-0.10;99.90;;;;;;4821512;29;20073;-74
2022/04/04 04:15:14;;;;;;;8.38;3.63;;;0.00;99.90;;;;;;4806054;29;20054;-74
2022/04/04 04:17:42;;;;;;;6.75;3.65;;;0.00;99.90;;;;;;4807333;29;20065;-74
2022/04/04 04:20:20;;;;;;;7.65;3.35;;;0.00;99.90;;;;;;4792076;29;20528;-73
2022/04/04 04:22:49;;;;;;;4.32;3.58;;;0.00;99.90;;;;;;4797287;29;20484;-74
2022/04/04 04:25:18;;;;;;;9.13;4.70;;;0.00;99.90;;;;;;4813091;29;20054;-74
2022/04/04 04:27:46;;;;;;;8.30;3.88;;;0.00;99.90;;;;;;4822652;29;20055;-74
2022/04/04 04:30:16;;;;;;;10.60;4.97;;;0.00;99.90;;;;;;4824900;29;20065;-73
2022/04/04 04:32:45;;;;;;;11.40;4.13;;;0.00;99.90;;;;;;4821756;29;20061;-73
2022/04/04 04:35:13;;;;;;;11.23;4.30;;;0.00;99.90;;;;;;4807674;29;20165;-75
2022/04/04 04:37:41;;;;;;;8.48;4.57;;;0.10;99.90;;;;;;4806159;29;20111;-76
2022/04/04 04:40:10;;;;;;;8.32;4.97;;;0.10;99.90;;;;;;4823997;29;20145;-73
2022/04/04 04:42:39;;;;;;;11.32;4.63;;;0.20;99.90;;;;;;4800132;29;20098;-74
2022/04/04 04:45:08;;;;;;;8.10;4.85;;;0.20;99.90;;;;;;4825169;29;20058;-73
2022/04/04 04:47:37;;;;;;;7.63;3.67;;;0.20;99.90;;;;;;4831084;29;20107;-73
2022/04/04 04:50:07;;;;;;;9.75;4.28;;;0.20;99.90;;;;;;4843170;29;20613;-76
2022/04/04 04:52:35;;;;;;;8.98;4.10;;;0.20;99.90;;;;;;4842053;29;20058;-74
2022/04/04 04:55:04;;;;;;;11.43;4.00;;;0.20;99.90;;;;;;4817533;29;20062;-74
2022/04/04 04:57:32;;;;;;;9.25;4.07;;;0.30;99.90;;;;;;4826289;29;20054;-74
2022/04/04 05:00:02;;;;;;;9.50;4.45;;;0.30;99.90;;;;;;4804903;29;20055;-74
2022/04/04 05:02:31;;;;;;;7.90;4.22;;;0.30;99.90;;;;;;4820651;29;20066;-76
2022/04/04 05:04:59;;;;;;;10.77;4.80;;;0.40;99.90;;;;;;4803296;29;20062;-76
2022/04/04 05:07:27;;;;;;;11.73;5.55;;;0.40;99.90;;;;;;4797415;29;20058;-75
2022/04/04 05:09:54;;;;;;;6.68;4.20;;;0.50;99.90;;;;;;4805108;29;20073;-76
2022/04/04 05:12:22;;;;;;;7.97;4.75;;;0.50;99.90;;;;;;4805521;29;20260;-75
2022/04/04 05:14:49;;;;;;;8.40;4.47;;;0.60;99.90;;;;;;4822466;29;20080;-75
2022/04/04 05:17:16;;;;;;;7.78;4.18;;;0.70;99.90;;;;;;4802795;29;20416;-75
2022/04/04 05:19:44;;;;;;;8.77;4.20;;;0.80;99.90;;;;;;4820672;29;20066;-75
2022/04/04 05:22:14;;;;;;;8.18;3.78;;;0.90;99.90;;;;;;4803809;29;20501;-75
2022/04/04 05:24:41;;;;;;;13.45;4.53;;;1.00;99.90;;;;;;4818805;29;20123;-75
2022/04/04 05:27:09;;;;;;;7.63;4.50;;;1.10;99.90;;;;;;4797457;29;20062;-75
2022/04/04 05:29:37;;;;;;;13.20;5.00;;;1.20;99.90;;;;;;4819136;29;20058;-75
2022/04/04 05:32:05;;;;;;;8.18;4.05;;;1.20;99.90;;;;;;4818406;29;20150;-75
2022/04/04 05:34:33;;;;;;;9.90;4.40;;;1.30;99.90;;;;;;4819296;29;20421;-75
2022/04/04 05:37:01;;;;;;;12.07;4.32;;;1.40;99.90;;;;;;4801508;29;20062;-75
2022/04/04 05:39:29;;;;;;;9.90;4.32;;;1.50;99.90;;;;;;4804524;29;20058;-75
2022/04/04 05:41:57;;;;;;;15.02;5.13;;;1.50;99.90;;;;;;4823028;29;20145;-74
2022/04/04 05:44:25;;;;;;;8.13;3.72;;;1.60;99.90;;;;;;4821731;29;20082;-75
2022/04/04 05:46:52;;;;;;;11.25;4.18;;;1.70;99.90;;;;;;4823112;29;20073;-75
2022/04/04 05:49:20;;;;;;;22.45;4.32;;;1.90;99.90;;;;;;4802919;29;20497;-74
2022/04/04 05:51:48;;;;;;;12.70;4.30;;;2.00;99.90;;;;;;4822666;29;20059;-75
2022/04/04 05:54:15;;;;;;;10.60;4.97;;;2.10;99.90;;;;;;4806577;29;20050;-75
2022/04/04 05:56:45;;;;;;;23.33;5.10;;;2.20;99.90;;;;;;4826804;29;20059;-75
2022/04/04 05:59:13;;;;;;;16.02;6.65;;;2.40;99.90;;;;;;4820342;29;20054;-74
2022/04/04 06:01:41;;;;;;;19.02;4.65;;;2.70;99.90;;;;;;4808189;29;20064;-74
2022/04/04 06:04:09;;;;;;;10.50;4.10;;;3.10;99.90;;;;;;4820651;29;20512;-74
2022/04/04 06:06:36;;;;;;;10.43;4.85;;;3.60;99.90;;;;;;4822918;29;20149;-74
2022/04/04 06:09:04;;;;;;;22.70;5.50;;;4.30;99.90;;;;;;4804835;29;20063;-74
2022/04/04 06:11:31;;;;;;;21.25;5.13;;;4.70;99.90;;;;;;4791169;29;20470;-75
2022/04/04 06:14:00;;;;;;;11.55;3.83;;;5.10;99.90;;;;;;4801342;29;20528;-73
2022/04/04 06:16:28;;;;;;;12.70;3.88;;;5.70;99.90;;;;;;4815770;29;20054;-73
2022/04/04 06:18:55;;;;;;;22.63;5.00;;;6.00;99.90;;;;;;4794256;29;20055;-74
2022/04/04 06:21:23;;;;;;;12.15;4.00;;;6.20;99.90;;;;;;4795393;29;20067;-74
2022/04/04 06:23:50;;;;;;;11.10;3.45;;;6.50;99.90;;;;;;4815168;29;20584;-74
2022/04/04 06:26:17;;;;;;;11.48;3.28;;;6.80;99.90;;;;;;4800003;29;20082;-75
2022/04/04 06:28:45;;;;;;;13.52;3.47;;;7.20;99.90;;;;;;4810571;29;20127;-74
2022/04/04 06:31:14;;;;;;;10.68;3.53;;;7.50;99.90;;;;;;4813599;29;20527;-74
2022/04/04 06:33:41;;;;;;;17.58;5.30;;;7.70;99.20;;;;;;4817213;29;20063;-74
2022/04/04 06:36:09;;;;;;;17.85;4.13;;;7.90;95.80;;;;;;4794816;29;20058;-74
2022/04/04 06:38:37;;;;;;;17.95;3.88;;;8.10;94.80;;;;;;4819098;29;20065;-75
2022/04/04 06:41:04;;;;;;;19.13;3.53;;;8.40;90.40;;;;;;4817654;29;20583;-75
2022/04/04 06:43:32;;;;;;;12.27;3.25;;;8.40;90.70;;;;;;4809893;29;20064;-74
2022/04/04 06:46:01;;;;;;;26.63;5.88;;;8.60;89.20;;;;;;4837725;29;20175;-75
2022/04/04 06:48:30;;;;;;;28.55;4.00;;;8.80;90.20;;;;;;4836840;29;20487;-75
2022/04/04 06:50:59;;;;;;;22.98;4.25;;;9.20;86.70;;;;;;4837107;29;20054;-74
2022/04/04 06:53:26;;;;;;;14.38;3.72;;;9.40;82.40;;;;;;4839125;29;20407;-74
2022/04/04 06:55:53;;;;;;;20.58;3.97;;;9.60;79.00;;;;;;4838838;29;20172;-74
2022/04/04 06:58:21;;;;;;;15.57;3.10;;;9.70;76.60;;;;;;4838221;29;20073;-74
2022/04/04 07:00:49;;;;;;;17.13;2.80;;;9.70;74.70;;;;;;4837465;29;20468;-75
2022/04/04 07:03:16;;;;;;;17.02;2.83;;;10.00;71.00;;;;;;4832641;29;20086;-75
2022/04/04 07:05:45;;;;;;;8.85;2.80;;;10.00;70.40;;;;;;4831107;29;20524;-75
2022/04/04 07:08:14;;;;;;;13.82;3.17;;;10.20;68.40;;;;;;4833366;29;20535;-75
2022/04/04 07:10:41;;;;;;;20.27;3.03;;;10.30;68.10;;;;;;4827701;29;20062;-76
2022/04/04 07:13:08;;;;;;;15.38;3.20;;;10.50;66.00;;;;;;4822198;29;20133;-75
2022/04/04 07:15:36;;;;;;;12.23;2.38;;;10.70;66.10;;;;;;4834392;29;20057;-75
2022/04/04 07:18:04;;;;;;;13.65;2.90;;;10.90;64.70;;;;;;4839828;29;20053;-75
2022/04/04 07:20:32;;;;;;;7.05;2.40;;;11.00;64.40;;;;;;4851857;29;20057;-76
2022/04/04 07:23:03;;;;;;;8.57;1.83;;;11.40;63.50;;;;;;4833956;29;20065;-76
2022/04/04 07:25:30;;;;;;;11.57;3.50;;;12.10;59.70;;;;;;4837973;29;20427;-76
2022/04/04 07:27:58;;;;;;;7.75;2.58;;;12.30;59.40;;;;;;4835680;29;20061;-76
2022/04/04 07:30:26;;;;;;;10.70;3.80;;;12.50;59.70;;;;;;4838580;29;20062;-77
2022/04/04 07:32:54;;;;;;;18.27;2.85;;;12.90;57.30;;;;;;4831438;29;20050;-76
2022/04/04 07:35:22;;;;;;;10.52;3.22;;;13.20;56.10;;;;;;4830859;29;20054;-76
2022/04/04 07:37:52;;;;;;;14.82;4.07;;;13.20;55.60;;;;;;4836631;29;20391;-77
2022/04/04 07:40:22;;;;;;;15.90;3.83;;;13.40;55.60;;;;;;4841541;29;20053;-76
2022/04/04 07:42:50;;;;;;;12.85;3.45;;;13.50;54.70;;;;;;4842345;29;20093;-77
2022/04/04 07:45:18;;;;;;;14.65;3.30;;;13.60;54.50;;;;;;4840071;29;20430;-76
2022/04/04 07:47:49;;;;;;;18.10;2.83;;;13.90;53.40;;;;;;4842424;29;20062;-76
2022/04/04 07:50:16;;;;;;;12.68;2.88;;;14.20;52.70;;;;;;4840545;29;20056;-77
2022/04/04 07:52:44;;;;;;;22.13;2.58;;;14.00;52.20;;;;;;4842251;29;20157;-76
2022/04/04 07:55:11;;;;;;;13.32;2.33;;;13.50;53.30;;;;;;4844059;29;20065;-76
2022/04/04 07:57:41;;;;;;;13.88;2.30;;;13.00;53.40;;;;;;4850135;29;20062;-76
2022/04/04 08:00:14;;;;;;;22.05;3.33;;;12.90;54.30;;;;;;4840957;29;20496;-77
2022/04/04 08:02:42;;;;;;;;;;;13.00;54.00;;;;;;4843807;29;20096;-77
2022/04/04 08:05:10;;;;;;;16.02;2.45;;;12.90;54.40;;;;;;4840048;29;19935;-76
2022/04/04 08:07:38;;;;;;;21.13;2.28;;;12.90;54.40;;;;;;4840877;29;20085;-76
2022/04/04 08:10:08;;;;;;;10.50;2.17;;;13.30;54.70;;;;;;4841278;29;20064;-76
2022/04/04 08:12:35;;;;;;;8.75;1.90;;;14.30;54.10;;;;;;4841275;29;20057;-76
2022/04/04 08:15:05;;;;;;;10.05;2.05;;;15.10;50.80;;;;;;4839511;29;20114;-76
2022/04/04 08:17:33;;;;;;;7.78;1.90;;;14.40;50.50;;;;;;4839852;29;20081;-75
2022/04/04 08:20:01;;;;;;;10.23;2.05;;;13.40;52.10;;;;;;4833666;29;20056;-76
2022/04/04 08:22:30;;;;;;;13.40;2.47;;;12.60;53.40;;;;;;4833685;29;20527;-76
2022/04/04 08:24:57;;;;;;;14.27;2.28;;;11.80;54.60;;;;;;4860235;29;20542;-76
2022/04/04 08:27:25;;;;;;;7.22;2.08;;;11.00;56.20;;;;;;4839527;29;20061;-76
2022/04/04 08:29:52;;;;;;;8.70;1.95;;;10.30;57.70;;;;;;4840736;29;20062;-75
2022/04/04 08:32:21;;;;;;;13.30;3.22;;;9.70;59.20;;;;;;4837854;29;20063;-75
2022/04/04 08:34:51;;;;;;;9.13;2.03;;;9.20;60.50;;;;;;4847446;29;20065;-75
2022/04/04 08:37:18;;;;;;;9.73;1.60;;;8.70;62.60;;;;;;4839254;29;20065;-75
2022/04/04 08:39:47;;;;;;;5.65;1.70;;;8.50;63.50;;;;;;4841656;29;20058;-76
2022/04/04 08:42:17;;;;;;;15.43;2.15;;;8.30;64.70;;;;;;4840038;29;20062;-76
2022/04/04 08:44:46;;;;;;;7.93;1.88;;;8.20;65.10;;;;;;4840813;29;20062;-77
2022/04/04 08:47:13;;;;;;;8.27;1.75;;;8.00;66.00;;;;;;4839184;29;20079;-76
2022/04/04 08:49:42;;;;;;;6.57;1.88;;;7.80;66.70;;;;;;4841658;29;20062;-76
2022/04/04 08:52:09;;;;;;;14.43;2.13;;;7.90;67.30;;;;;;4838114;29;20054;-76
2022/04/04 08:54:37;;;;;;;9.65;2.13;;;8.00;66.80;;;;;;4839460;29;20464;-77
2022/04/04 08:57:04;;;;;;;8.70;1.50;;;8.10;66.60;;;;;;4839510;29;20145;-78
2022/04/04 08:59:32;;;;;;;8.48;1.35;;;8.10;67.20;;;;;;4837346;29;20058;-76
2022/04/04 09:01:59;;;;;;;4.63;1.30;;;8.20;67.20;;;;;;4839996;29;20057;-76
2022/04/04 09:04:27;;;;;;;13.38;1.50;;;8.10;67.20;;;;;;4840520;29;20057;-76
2022/04/04 09:06:57;;;;;;;3.80;1.08;;;7.90;67.20;;;;;;4840645;29;20091;-76
2022/04/04 09:09:27;;;;;;;12.40;1.52;;;8.00;68.30;;;;;;4837865;29;20049;-77
2022/04/04 09:12:09;;;;;;;2.83;1.05;;;8.30;67.70;;;;;;4836893;29;20065;-76
2022/04/04 09:14:43;;;;;;;5.45;1.52;;;8.50;67.00;;;;;;4843830;29;20129;-76
2022/04/04 09:17:11;;;;;;;13.48;2.25;;;8.70;67.90;;;;;;4845462;29;20546;-77
2022/04/04 09:19:40;;;;;;;12.10;1.70;;;9.00;66.50;;;;;;4837901;29;20054;-76
2022/04/04 09:22:12;;;;;;;6.60;1.80;;;9.10;65.90;;;;;;4840534;29;20093;-76
2022/04/04 09:24:52;;;;;;;11.17;2.07;;;9.30;65.80;;;;;;4839091;29;20058;-76
2022/04/04 09:27:24;;;;;;;11.30;1.92;;;9.50;64.70;;;;;;4810821;29;20541;-75
2022/04/04 09:29:58;;;;;;;9.85;1.65;;;10.10;64.30;;;;;;4840464;29;20545;-76
2022/04/04 09:32:37;;;;;;;7.93;1.27;;;10.50;62.70;;;;;;4816457;29;20504;-75
2022/04/04 09:35:12;;;;;;;4.82;0.82;;;11.30;59.70;;;;;;4850630;29;20144;-75
2022/04/04 09:37:44;;;;;;;3.55;0.90;;;12.30;57.60;;;;;;4838592;29;20072;-74
2022/04/04 09:40:16;;;;;;;3.38;0.98;;;13.90;55.20;;;;;;4828804;29;20093;-75
2022/04/04 09:42:58;;;;;;;6.53;1.55;;;15.10;52.20;;;;;;4839787;29;20069;-74
2022/04/04 09:45:29;;;;;;;6.50;1.30;;;15.30;51.10;;;;;;4838819;29;20077;-75
2022/04/04 09:47:58;;;;;;;5.38;1.60;;;16.00;50.50;;;;;;4838457;29;20317;-74
2022/04/04 09:50:39;;;;;;;10.27;1.35;;;16.20;48.60;;;;;;4839083;29;20058;-74
2022/04/04 09:53:10;;;;;;;5.88;1.10;;;16.30;48.00;;;;;;4840431;29;20110;-76
2022/04/04 09:55:41;;;;;;;4.35;0.93;;;15.00;48.90;;;;;;4838387;29;20153;-75
2022/04/04 09:58:13;;;;;;;11.23;1.73;;;13.80;50.70;;;;;;4839785;29;20082;-75
2022/04/04 10:00:42;;;;;;;6.87;1.07;;;13.30;52.20;;;;;;4838855;29;20062;-75
2022/04/04 10:03:12;;;;;;;1.90;0.95;;;13.20;52.90;;;;;;4832602;29;20415;-75
2022/04/04 10:05:44;;;;;;;3.95;0.88;;;12.70;53.30;;;;;;4833673;29;20076;-75
2022/04/04 10:08:17;;;;;;;8.35;1.35;;;12.20;54.40;;;;;;4831521;29;20054;-74
2022/04/04 10:10:45;;;;;;;9.05;1.58;;;11.50;55.50;;;;;;4838958;29;20058;-75
2022/04/04 10:13:15;;;;;;;5.97;1.30;;;10.90;57.20;;;;;;4827485;29;20441;-75
2022/04/04 10:15:43;;;;;;;7.40;1.15;;;10.80;57.70;;;;;;4834596;29;20089;-74
2022/04/04 10:18:11;;;;;;;5.07;1.00;;;10.20;58.90;;;;;;4832343;29;20054;-75
2022/04/04 10:20:38;;;;;;;2.13;1.00;;;9.80;60.10;;;;;;4831446;29;20057;-75
2022/04/04 10:23:07;;;;;;;7.55;1.30;;;9.40;61.60;;;;;;4838707;29;20073;-75
2022/04/04 10:25:37;;;;;;;7.38;1.52;;;9.30;62.90;;;;;;4838030;29;20087;-75
2022/04/04 10:28:06;;;;;;;2.03;0.82;;;9.40;63.70;;;;;;4822213;29;20142;-77
2022/04/04 10:30:39;;;;;;;12.00;1.60;;;9.50;62.90;;;;;;4822855;29;20074;-77
2022/04/04 10:33:20;;;;;;;3.85;1.00;;;9.40;63.40;;;;;;4837699;29;20097;-77
2022/04/04 10:36:01;;;;;;;3.70;1.15;;;9.00;64.40;;;;;;4838909;29;20416;-78
2022/04/04 10:38:31;;;;;;;4.55;1.50;;;8.50;66.10;;;;;;4838272;29;20455;-76
2022/04/04 10:41:09;;;;;;;5.57;1.10;;;8.20;68.20;;;;;;4836909;29;20066;-74
2022/04/04 10:43:39;;;;;;;7.15;1.38;;;8.20;69.30;;;;;;4836858;29;20069;-75
2022/04/04 10:46:11;;;;;;;4.85;1.77;;;8.40;69.50;;;;;;4835543;29;20057;-75
2022/04/04 10:48:41;;;;;;;5.55;1.55;;;8.30;70.20;;;;;;4837813;29;20146;-78
2022/04/04 10:51:17;;;;;;;4.05;1.10;;;8.10;71.30;;;;;;4836067;29;20538;-76
2022/04/04 10:53:49;;;;;;;5.53;1.45;;;7.90;73.00;;;;;;4837078;29;20534;-77
2022/04/04 10:56:24;;;;;;;5.93;1.17;;;7.70;74.50;;;;;;4836948;29;20070;-74
2022/04/04 10:58:54;;;;;;;4.38;1.25;;;7.40;78.60;;;;;;4833834;29;20064;-74
2022/04/04 11:01:24;;;;;;;9.88;1.88;;;7.10;83.10;;;;;;4837987;29;20049;-74
2022/04/04 11:04:01;;;;;;;2.25;0.93;;;7.00;89.10;;;;;;4835634;29;20065;-77
2022/04/04 11:09:50;;;;;;;11.02;1.50;;;8.80;81.40;;;;;;4837029;29;20061;-76
2022/04/04 11:12:22;;;;;;;3.35;1.33;;;9.00;76.90;;;;;;4833507;29;20196;-75
2022/04/04 11:14:57;;;;;;;5.18;1.15;;;8.90;76.40;;;;;;4843966;29;20133;-76
2022/04/04 11:17:36;;;;;;;2.63;1.17;;;8.70;74.90;;;;;;4834549;29;20073;-75
2022/04/04 11:20:16;;;;;;;5.28;1.63;;;8.50;76.20;;;;;;4834103;29;20077;-76
2022/04/04 11:22:51;;;;;;;8.23;1.10;;;8.30;77.60;;;;;;4829250;29;20104;-78
2022/04/04 11:25:20;;;;;;;6.78;1.50;;;8.10;78.50;;;;;;4827983;29;20060;-78
2022/04/04 11:27:50;;;;;;;4.07;1.50;;;8.10;79.80;;;;;;4836011;29;20066;-76
2022/04/04 11:30:23;;;;;;;9.73;2.28;;;8.40;79.20;;;;;;4829504;29;20061;-78
2022/04/04 11:32:54;;;;;;;12.00;2.65;;;9.00;75.70;;;;;;4827043;29;20145;-75
2022/04/04 11:35:27;;;;;;;5.13;1.45;;;9.80;70.40;;;;;;4828894;29;20061;-74
2022/04/04 11:37:57;;;;;;;7.75;2.22;;;9.70;68.90;;;;;;4830140;29;20593;-75
2022/04/04 11:40:29;;;;;;;8.77;1.48;;;9.40;69.40;;;;;;4840239;29;20054;-75
2022/04/04 11:42:59;;;;;;;5.23;1.50;;;9.60;68.60;;;;;;4824485;29;20066;-75
2022/04/04 11:45:30;;;;;;;2.25;1.15;;;9.70;66.10;;;;;;4833443;29;20507;-73
2022/04/04 11:48:01;;;;;;;6.13;0.90;;;9.70;65.60;;;;;;4833753;29;20083;-76
2022/04/04 11:50:30;;;;;;;4.80;2.10;;;10.00;65.30;;;;;;4830174;29;20062;-75
2022/04/04 11:53:02;;;;;;;11.10;1.60;;;11.40;61.30;;;;;;4832203;29;20062;-76
2022/04/04 11:55:32;;;;;;;4.80;0.85;;;11.50;59.30;;;;;;4822409;29;20064;-75
2022/04/04 11:58:09;;;;;;;6.82;0.82;;;11.10;58.40;;;;;;4836018;29;20525;-75
2022/04/04 12:00:39;;;;;;;38.00;2.58;;;10.90;59.40;;;;;;4836983;29;20066;-76
2022/04/04 12:03:10;;;;;;;5.45;1.27;;;11.70;58.90;;;;;;4834250;29;20084;-75
2022/04/04 12:05:39;;;;;;;3.60;1.33;;;13.00;56.80;;;;;;4831773;29;20606;-74
2022/04/04 12:08:07;;;;;;;20.95;2.22;;;13.60;54.40;;;;;;4785643;29;20062;-76
2022/04/04 12:10:37;;;;;;;7.28;1.35;;;13.00;54.10;;;;;;4834854;29;20062;-75
2022/04/04 12:13:08;;;;;;;5.15;0.75;;;12.10;54.70;;;;;;4837036;29;20111;-75
2022/04/04 12:15:37;;;;;;;4.80;1.52;;;12.00;55.80;;;;;;4832045;29;20058;-75
2022/04/04 12:18:07;;;;;;;11.45;1.30;;;12.80;54.50;;;;;;4836573;29;20110;-77
2022/04/04 12:20:40;;;;;;;6.78;1.70;;;12.70;53.70;;;;;;4837011;29;20130;-75
2022/04/04 12:25:57;;;;;;;10.35;2.15;;;12.70;54.80;;;;;;4837343;29;20089;-76
2022/04/04 12:28:29;;;;;;;6.22;1.80;;;13.60;53.20;;;;;;4837216;29;20062;-76
2022/04/04 12:30:57;;;;;;;15.18;1.27;;;14.40;51.30;;;;;;4842876;29;20062;-78
2022/04/04 12:33:33;;;;;;;2.50;1.00;;;14.40;50.40;;;;;;4851355;29;20146;-77
2022/04/04 12:36:04;;;;;;;8.35;0.88;;;14.00;50.70;;;;;;4836290;29;20058;-77
2022/04/04 12:38:33;;;;;;;5.03;1.10;;;14.20;50.80;;;;;;4838321;29;20069;-77
2022/04/04 12:41:21;;;;;;;17.15;2.03;;;14.30;50.90;;;;;;4836956;29;20058;-78
2022/04/04 12:44:03;;;;;;;5.82;1.10;;;14.30;50.70;;;;;;4830436;29;20237;-77
2022/04/04 12:46:32;;;;;;;12.80;1.23;;;14.60;50.30;;;;;;4829876;29;20431;-78
2022/04/04 12:49:14;;;;;;;5.60;1.10;;;14.70;49.80;;;;;;4826543;29;20100;-77
2022/04/04 12:51:52;;;;;;;2.75;0.85;;;15.00;49.00;;;;;;4822414;29;20062;-79
2022/04/04 12:54:31;;;;;;;1.55;0.70;;;14.70;48.40;;;;;;4854622;29;20068;-78
2022/04/04 12:57:01;;;;;;;4.88;0.80;;;14.40;49.40;;;;;;4833944;29;20073;-78
2022/04/04 12:59:31;;;;;;;4.05;1.05;;;14.50;49.10;;;;;;4830337;29;20527;-79
2022/04/04 13:02:05;;;;;;;6.15;1.58;;;14.60;48.70;;;;;;4839425;29;20058;-75
2022/04/04 13:04:34;;;;;;;5.00;0.70;;;14.70;48.30;;;;;;4834383;29;20196;-75
2022/04/04 13:07:01;;;;;;;4.22;0.90;;;14.20;48.20;;;;;;4824775;29;20082;-75